sensor_id;sensor_type;location;lat;lon;timestamp;P1;durP1;ratioP1;P2;durP2;ratioP2
25950;SDS011;13748;52.240;6.002;2023-04-25T00:00:55;13.13;;;4.37;;
25950;SDS011;13748;52.240;6.002;2023-04-25T00:03:21;12.90;;;4.37;;
25950;SDS011;13748;52.240;6.002;2023-04-25T00:05:51;12.53;;;4.40;;
25950;SDS011;13748;52.240;6.002;2023-04-25T00:08:18;11.40;;;4.17;;
25950;SDS011;13748;52.240;6.002;2023-04-25T00:10:45;16.67;;;4.90;;
25950;SDS011;13748;52.240;6.002;2023-04-25T00:13:12;14.47;;;5.30;;
25950;SDS011;13748;52.240;6.002;2023-04-25T00:15:41;15.87;;;4.67;;
25950;SDS011;13748;52.240;6.002;2023-04-25T00:18:08;17.90;;;5.40;;
25950;SDS011;13748;52.240;6.002;2023-04-25T00:20:35;13.17;;;4.50;;
25950;SDS011;13748;52.240;6.002;2023-04-25T00:23:02;19.43;;;5.57;;
25950;SDS011;13748;52.240;6.002;2023-04-25T00:25:29;20.87;;;5.63;;
25950;SDS011;13748;52.240;6.002;2023-04-25T00:27:56;12.53;;;5.10;;
25950;SDS011;13748;52.240;6.002;2023-04-25T00:30:23;14.40;;;4.97;;
25950;SDS011;13748;52.240;6.002;2023-04-25T00:32:49;21.00;;;5.67;;
25950;SDS011;13748;52.240;6.002;2023-04-25T00:35:16;15.47;;;6.63;;
25950;SDS011;13748;52.240;6.002;2023-04-25T00:37:43;16.50;;;6.30;;
25950;SDS011;13748;52.240;6.002;2023-04-25T00:40:11;17.00;;;5.63;;
25950;SDS011;13748;52.240;6.002;2023-04-25T00:42:38;20.27;;;5.83;;
25950;SDS011;13748;52.240;6.002;2023-04-25T00:45:06;17.53;;;6.47;;
25950;SDS011;13748;52.240;6.002;2023-04-25T00:47:35;13.30;;;5.07;;
25950;SDS011;13748;52.240;6.002;2023-04-25T00:50:02;22.77;;;6.57;;
25950;SDS011;13748;52.240;6.002;2023-04-25T00:52:29;27.57;;;6.03;;
25950;SDS011;13748;52.240;6.002;2023-04-25T00:54:56;18.33;;;5.93;;
25950;SDS011;13748;52.240;6.002;2023-04-25T00:57:23;19.47;;;5.90;;
25950;SDS011;13748;52.240;6.002;2023-04-25T00:59:50;16.23;;;6.57;;
25950;SDS011;13748;52.240;6.002;2023-04-25T01:02:18;25.83;;;5.77;;
25950;SDS011;13748;52.240;6.002;2023-04-25T01:04:47;22.80;;;6.57;;
25950;SDS011;13748;52.240;6.002;2023-04-25T01:07:14;18.63;;;6.37;;
25950;SDS011;13748;52.240;6.002;2023-04-25T01:09:41;15.93;;;5.87;;
25950;SDS011;13748;52.240;6.002;2023-04-25T01:12:08;28.60;;;6.20;;
25950;SDS011;13748;52.240;6.002;2023-04-25T01:14:35;18.80;;;5.43;;
25950;SDS011;13748;52.240;6.002;2023-04-25T01:17:02;21.83;;;6.40;;
25950;SDS011;13748;52.240;6.002;2023-04-25T01:19:29;24.80;;;6.13;;
25950;SDS011;13748;52.240;6.002;2023-04-25T01:21:56;22.03;;;5.10;;
25950;SDS011;13748;52.240;6.002;2023-04-25T01:24:23;26.00;;;6.23;;
25950;SDS011;13748;52.240;6.002;2023-04-25T01:26:50;16.73;;;5.50;;
25950;SDS011;13748;52.240;6.002;2023-04-25T01:29:22;19.93;;;6.90;;
25950;SDS011;13748;52.240;6.002;2023-04-25T01:31:51;23.83;;;6.10;;
25950;SDS011;13748;52.240;6.002;2023-04-25T01:34:19;24.17;;;5.27;;
25950;SDS011;13748;52.240;6.002;2023-04-25T01:37:06;20.33;;;6.47;;
25950;SDS011;13748;52.240;6.002;2023-04-25T01:40:32;22.23;;;6.43;;
25950;SDS011;13748;52.240;6.002;2023-04-25T01:54:43;23.87;;;7.33;;
25950;SDS011;13748;52.240;6.002;2023-04-25T01:58:17;14.70;;;6.43;;
25950;SDS011;13748;52.240;6.002;2023-04-25T02:00:44;18.23;;;6.00;;
25950;SDS011;13748;52.240;6.002;2023-04-25T02:03:12;24.83;;;7.00;;
25950;SDS011;13748;52.240;6.002;2023-04-25T02:05:39;24.73;;;6.07;;
25950;SDS011;13748;52.240;6.002;2023-04-25T02:08:07;17.70;;;5.40;;
25950;SDS011;13748;52.240;6.002;2023-04-25T02:10:34;18.63;;;5.87;;
25950;SDS011;13748;52.240;6.002;2023-04-25T02:13:02;23.20;;;5.70;;
25950;SDS011;13748;52.240;6.002;2023-04-25T02:15:30;19.70;;;4.97;;
25950;SDS011;13748;52.240;6.002;2023-04-25T02:17:57;20.17;;;5.90;;
25950;SDS011;13748;52.240;6.002;2023-04-25T02:20:26;22.50;;;5.67;;
25950;SDS011;13748;52.240;6.002;2023-04-25T02:22:56;20.17;;;5.10;;
25950;SDS011;13748;52.240;6.002;2023-04-25T02:25:23;22.27;;;5.93;;
25950;SDS011;13748;52.240;6.002;2023-04-25T02:27:50;19.13;;;5.60;;
25950;SDS011;13748;52.240;6.002;2023-04-25T02:30:17;18.27;;;6.47;;
25950;SDS011;13748;52.240;6.002;2023-04-25T02:32:44;17.70;;;4.47;;
25950;SDS011;13748;52.240;6.002;2023-04-25T02:35:11;19.87;;;5.30;;
25950;SDS011;13748;52.240;6.002;2023-04-25T02:37:38;21.50;;;5.50;;
25950;SDS011;13748;52.240;6.002;2023-04-25T02:40:06;21.53;;;5.10;;
25950;SDS011;13748;52.240;6.002;2023-04-25T02:42:33;17.83;;;5.30;;
25950;SDS011;13748;52.240;6.002;2023-04-25T02:45:00;20.20;;;5.57;;
25950;SDS011;13748;52.240;6.002;2023-04-25T02:47:27;17.53;;;4.90;;
25950;SDS011;13748;52.240;6.002;2023-04-25T02:49:54;23.70;;;5.43;;
25950;SDS011;13748;52.240;6.002;2023-04-25T02:52:21;14.37;;;4.80;;
25950;SDS011;13748;52.240;6.002;2023-04-25T02:54:49;15.37;;;4.87;;
25950;SDS011;13748;52.240;6.002;2023-04-25T02:57:16;19.00;;;5.87;;
25950;SDS011;13748;52.240;6.002;2023-04-25T02:59:42;16.33;;;5.63;;
25950;SDS011;13748;52.240;6.002;2023-04-25T03:02:09;16.97;;;5.23;;
25950;SDS011;13748;52.240;6.002;2023-04-25T03:04:36;22.90;;;5.47;;
25950;SDS011;13748;52.240;6.002;2023-04-25T03:07:03;19.53;;;5.47;;
25950;SDS011;13748;52.240;6.002;2023-04-25T03:09:31;24.50;;;5.93;;
25950;SDS011;13748;52.240;6.002;2023-04-25T03:11:57;20.63;;;6.07;;
25950;SDS011;13748;52.240;6.002;2023-04-25T03:14:24;19.90;;;5.77;;
25950;SDS011;13748;52.240;6.002;2023-04-25T03:16:51;18.77;;;5.63;;
25950;SDS011;13748;52.240;6.002;2023-04-25T03:19:18;17.20;;;5.13;;
25950;SDS011;13748;52.240;6.002;2023-04-25T03:21:45;15.63;;;5.17;;
25950;SDS011;13748;52.240;6.002;2023-04-25T03:24:12;17.17;;;4.90;;
25950;SDS011;13748;52.240;6.002;2023-04-25T03:26:38;17.07;;;5.13;;
25950;SDS011;13748;52.240;6.002;2023-04-25T03:29:05;13.87;;;4.87;;
25950;SDS011;13748;52.240;6.002;2023-04-25T03:31:32;21.60;;;5.47;;
25950;SDS011;13748;52.240;6.002;2023-04-25T03:34:01;11.70;;;4.50;;
25950;SDS011;13748;52.240;6.002;2023-04-25T03:36:28;18.63;;;5.60;;
25950;SDS011;13748;52.240;6.002;2023-04-25T03:38:55;11.07;;;4.43;;
25950;SDS011;13748;52.240;6.002;2023-04-25T03:41:22;16.50;;;4.40;;
25950;SDS011;13748;52.240;6.002;2023-04-25T03:43:48;16.70;;;5.37;;
25950;SDS011;13748;52.240;6.002;2023-04-25T03:46:15;13.83;;;4.50;;
25950;SDS011;13748;52.240;6.002;2023-04-25T03:48:42;20.37;;;4.83;;
25950;SDS011;13748;52.240;6.002;2023-04-25T03:51:09;16.20;;;5.23;;
25950;SDS011;13748;52.240;6.002;2023-04-25T03:53:36;17.30;;;4.93;;
25950;SDS011;13748;52.240;6.002;2023-04-25T03:56:03;10.37;;;3.97;;
25950;SDS011;13748;52.240;6.002;2023-04-25T03:58:30;16.83;;;4.80;;
25950;SDS011;13748;52.240;6.002;2023-04-25T04:00:57;13.90;;;4.53;;
25950;SDS011;13748;52.240;6.002;2023-04-25T04:03:24;14.10;;;4.67;;
25950;SDS011;13748;52.240;6.002;2023-04-25T04:05:51;13.47;;;5.23;;
25950;SDS011;13748;52.240;6.002;2023-04-25T04:08:18;10.77;;;4.60;;
25950;SDS011;13748;52.240;6.002;2023-04-25T04:10:45;12.33;;;4.63;;
25950;SDS011;13748;52.240;6.002;2023-04-25T04:13:13;14.17;;;5.40;;
25950;SDS011;13748;52.240;6.002;2023-04-25T04:15:39;13.43;;;4.60;;
25950;SDS011;13748;52.240;6.002;2023-04-25T04:18:06;15.17;;;4.90;;
25950;SDS011;13748;52.240;6.002;2023-04-25T04:20:33;19.97;;;4.93;;
25950;SDS011;13748;52.240;6.002;2023-04-25T04:23:00;20.07;;;6.17;;
25950;SDS011;13748;52.240;6.002;2023-04-25T04:25:27;24.87;;;6.17;;
25950;SDS011;13748;52.240;6.002;2023-04-25T04:27:54;13.37;;;4.27;;
25950;SDS011;13748;52.240;6.002;2023-04-25T04:30:22;17.43;;;4.30;;
25950;SDS011;13748;52.240;6.002;2023-04-25T04:32:50;12.77;;;4.53;;
25950;SDS011;13748;52.240;6.002;2023-04-25T04:35:18;17.13;;;5.17;;
25950;SDS011;13748;52.240;6.002;2023-04-25T04:37:45;8.97;;;3.80;;
25950;SDS011;13748;52.240;6.002;2023-04-25T04:40:12;12.73;;;4.93;;
25950;SDS011;13748;52.240;6.002;2023-04-25T04:42:44;8.90;;;3.50;;
25950;SDS011;13748;52.240;6.002;2023-04-25T04:45:11;9.40;;;3.47;;
25950;SDS011;13748;52.240;6.002;2023-04-25T04:47:39;13.00;;;4.47;;
25950;SDS011;13748;52.240;6.002;2023-04-25T04:50:07;15.30;;;3.67;;
25950;SDS011;13748;52.240;6.002;2023-04-25T04:52:37;5.97;;;2.77;;
25950;SDS011;13748;52.240;6.002;2023-04-25T04:55:05;8.43;;;3.00;;
25950;SDS011;13748;52.240;6.002;2023-04-25T04:57:32;6.17;;;2.47;;
25950;SDS011;13748;52.240;6.002;2023-04-25T04:59:59;6.30;;;2.53;;
25950;SDS011;13748;52.240;6.002;2023-04-25T05:02:26;8.57;;;2.70;;
25950;SDS011;13748;52.240;6.002;2023-04-25T05:04:55;11.43;;;3.00;;
25950;SDS011;13748;52.240;6.002;2023-04-25T05:07:23;11.77;;;3.00;;
25950;SDS011;13748;52.240;6.002;2023-04-25T05:09:49;8.07;;;2.37;;
25950;SDS011;13748;52.240;6.002;2023-04-25T05:12:16;8.30;;;2.57;;
25950;SDS011;13748;52.240;6.002;2023-04-25T05:14:43;11.83;;;2.60;;
25950;SDS011;13748;52.240;6.002;2023-04-25T05:17:09;4.53;;;2.30;;
25950;SDS011;13748;52.240;6.002;2023-04-25T05:19:36;7.27;;;2.43;;
25950;SDS011;13748;52.240;6.002;2023-04-25T05:22:04;5.37;;;2.37;;
25950;SDS011;13748;52.240;6.002;2023-04-25T05:24:31;5.87;;;3.10;;
25950;SDS011;13748;52.240;6.002;2023-04-25T05:26:57;10.80;;;2.83;;
25950;SDS011;13748;52.240;6.002;2023-04-25T05:29:24;10.10;;;2.70;;
25950;SDS011;13748;52.240;6.002;2023-04-25T05:31:51;9.57;;;3.10;;
25950;SDS011;13748;52.240;6.002;2023-04-25T05:34:19;9.23;;;2.77;;
25950;SDS011;13748;52.240;6.002;2023-04-25T05:36:46;8.70;;;3.17;;
25950;SDS011;13748;52.240;6.002;2023-04-25T05:39:15;7.23;;;3.47;;
25950;SDS011;13748;52.240;6.002;2023-04-25T05:41:43;12.53;;;3.07;;
25950;SDS011;13748;52.240;6.002;2023-04-25T05:44:10;7.03;;;2.97;;
25950;SDS011;13748;52.240;6.002;2023-04-25T05:46:37;8.77;;;3.20;;
25950;SDS011;13748;52.240;6.002;2023-04-25T05:49:04;7.27;;;3.13;;
25950;SDS011;13748;52.240;6.002;2023-04-25T05:58:39;10.97;;;2.97;;
25950;SDS011;13748;52.240;6.002;2023-04-25T06:01:35;10.67;;;3.80;;
25950;SDS011;13748;52.240;6.002;2023-04-25T06:07:52;12.90;;;7.03;;
25950;SDS011;13748;52.240;6.002;2023-04-25T06:10:59;22.67;;;10.20;;
25950;SDS011;13748;52.240;6.002;2023-04-25T06:22:28;14.17;;;2.83;;
25950;SDS011;13748;52.240;6.002;2023-04-25T06:30:14;11.87;;;3.97;;
25950;SDS011;13748;52.240;6.002;2023-04-25T06:32:56;14.60;;;4.60;;
25950;SDS011;13748;52.240;6.002;2023-04-25T06:35:44;13.20;;;5.03;;
25950;SDS011;13748;52.240;6.002;2023-04-25T06:38:30;14.47;;;4.93;;
25950;SDS011;13748;52.240;6.002;2023-04-25T06:40:57;17.57;;;4.90;;
25950;SDS011;13748;52.240;6.002;2023-04-25T06:43:24;11.10;;;5.20;;
25950;SDS011;13748;52.240;6.002;2023-04-25T06:45:51;11.47;;;4.60;;
25950;SDS011;13748;52.240;6.002;2023-04-25T06:48:18;9.23;;;3.53;;
25950;SDS011;13748;52.240;6.002;2023-04-25T06:50:49;10.70;;;4.07;;
25950;SDS011;13748;52.240;6.002;2023-04-25T06:53:15;10.93;;;3.83;;
25950;SDS011;13748;52.240;6.002;2023-04-25T06:55:42;11.53;;;2.87;;
25950;SDS011;13748;52.240;6.002;2023-04-25T06:58:09;12.53;;;2.70;;
25950;SDS011;13748;52.240;6.002;2023-04-25T07:00:36;8.90;;;2.73;;
25950;SDS011;13748;52.240;6.002;2023-04-25T07:03:03;10.80;;;3.07;;
25950;SDS011;13748;52.240;6.002;2023-04-25T07:05:30;9.10;;;2.70;;
25950;SDS011;13748;52.240;6.002;2023-04-25T07:07:57;6.77;;;2.50;;
25950;SDS011;13748;52.240;6.002;2023-04-25T07:10:24;7.17;;;2.57;;
25950;SDS011;13748;52.240;6.002;2023-04-25T07:12:51;6.17;;;2.33;;
25950;SDS011;13748;52.240;6.002;2023-04-25T07:15:18;7.57;;;2.57;;
25950;SDS011;13748;52.240;6.002;2023-04-25T07:17:44;7.53;;;2.67;;
25950;SDS011;13748;52.240;6.002;2023-04-25T07:20:11;10.60;;;2.80;;
25950;SDS011;13748;52.240;6.002;2023-04-25T07:22:38;11.43;;;2.90;;
25950;SDS011;13748;52.240;6.002;2023-04-25T07:25:05;8.67;;;2.53;;
25950;SDS011;13748;52.240;6.002;2023-04-25T07:27:32;8.80;;;2.47;;
25950;SDS011;13748;52.240;6.002;2023-04-25T07:29:59;6.88;;;2.70;;
25950;SDS011;13748;52.240;6.002;2023-04-25T07:32:26;7.50;;;2.20;;
25950;SDS011;13748;52.240;6.002;2023-04-25T07:34:53;9.77;;;2.72;;
25950;SDS011;13748;52.240;6.002;2023-04-25T07:37:20;6.65;;;1.55;;
25950;SDS011;13748;52.240;6.002;2023-04-25T07:39:46;4.95;;;1.45;;
25950;SDS011;13748;52.240;6.002;2023-04-25T07:42:13;5.80;;;1.63;;
25950;SDS011;13748;52.240;6.002;2023-04-25T07:44:40;5.85;;;1.77;;
25950;SDS011;13748;52.240;6.002;2023-04-25T07:47:08;9.10;;;2.13;;
25950;SDS011;13748;52.240;6.002;2023-04-25T07:49:36;8.55;;;2.17;;
25950;SDS011;13748;52.240;6.002;2023-04-25T07:52:04;6.75;;;1.45;;
25950;SDS011;13748;52.240;6.002;2023-04-25T07:54:32;2.90;;;1.10;;
25950;SDS011;13748;52.240;6.002;2023-04-25T07:56:59;3.00;;;1.23;;
25950;SDS011;13748;52.240;6.002;2023-04-25T07:59:25;5.03;;;1.30;;
25950;SDS011;13748;52.240;6.002;2023-04-25T08:01:55;5.40;;;1.40;;
25950;SDS011;13748;52.240;6.002;2023-04-25T08:04:24;5.07;;;1.83;;
25950;SDS011;13748;52.240;6.002;2023-04-25T08:06:52;4.23;;;1.60;;
25950;SDS011;13748;52.240;6.002;2023-04-25T08:09:20;3.30;;;1.40;;
25950;SDS011;13748;52.240;6.002;2023-04-25T08:11:47;5.33;;;1.60;;
25950;SDS011;13748;52.240;6.002;2023-04-25T08:14:14;4.50;;;1.70;;
25950;SDS011;13748;52.240;6.002;2023-04-25T08:16:41;4.90;;;1.50;;
25950;SDS011;13748;52.240;6.002;2023-04-25T08:19:08;4.23;;;1.70;;
25950;SDS011;13748;52.240;6.002;2023-04-25T08:21:36;4.83;;;1.63;;
25950;SDS011;13748;52.240;6.002;2023-04-25T08:24:03;3.97;;;1.50;;
25950;SDS011;13748;52.240;6.002;2023-04-25T08:26:30;4.17;;;1.60;;
25950;SDS011;13748;52.240;6.002;2023-04-25T08:28:56;3.43;;;1.47;;
25950;SDS011;13748;52.240;6.002;2023-04-25T08:31:23;5.10;;;1.63;;
25950;SDS011;13748;52.240;6.002;2023-04-25T08:33:50;5.63;;;1.90;;
25950;SDS011;13748;52.240;6.002;2023-04-25T08:36:18;6.57;;;2.20;;
25950;SDS011;13748;52.240;6.002;2023-04-25T08:39:04;6.33;;;3.83;;
25950;SDS011;13748;52.240;6.002;2023-04-25T08:41:30;5.77;;;2.10;;
25950;SDS011;13748;52.240;6.002;2023-04-25T08:43:58;6.50;;;2.10;;
25950;SDS011;13748;52.240;6.002;2023-04-25T08:46:27;5.63;;;1.90;;
25950;SDS011;13748;52.240;6.002;2023-04-25T08:48:55;6.30;;;1.87;;
25950;SDS011;13748;52.240;6.002;2023-04-25T08:51:26;6.20;;;1.60;;
25950;SDS011;13748;52.240;6.002;2023-04-25T08:53:54;13.43;;;3.50;;
25950;SDS011;13748;52.240;6.002;2023-04-25T08:56:27;6.63;;;2.00;;
25950;SDS011;13748;52.240;6.002;2023-04-25T08:58:56;6.20;;;1.88;;
25950;SDS011;13748;52.240;6.002;2023-04-25T09:01:23;7.22;;;1.80;;
25950;SDS011;13748;52.240;6.002;2023-04-25T09:03:50;6.05;;;1.70;;
25950;SDS011;13748;52.240;6.002;2023-04-25T09:06:17;5.57;;;1.90;;
25950;SDS011;13748;52.240;6.002;2023-04-25T09:08:45;4.47;;;1.90;;
25950;SDS011;13748;52.240;6.002;2023-04-25T09:11:12;3.17;;;1.07;;
25950;SDS011;13748;52.240;6.002;2023-04-25T09:13:40;4.03;;;1.53;;
25950;SDS011;13748;52.240;6.002;2023-04-25T09:16:07;4.47;;;1.20;;
25950;SDS011;13748;52.240;6.002;2023-04-25T09:18:34;2.23;;;1.10;;
25950;SDS011;13748;52.240;6.002;2023-04-25T09:21:09;4.07;;;1.03;;
25950;SDS011;13748;52.240;6.002;2023-04-25T09:23:46;4.00;;;1.30;;
25950;SDS011;13748;52.240;6.002;2023-04-25T09:26:15;4.30;;;1.20;;
25950;SDS011;13748;52.240;6.002;2023-04-25T09:28:46;4.07;;;1.50;;
25950;SDS011;13748;52.240;6.002;2023-04-25T09:31:22;3.40;;;1.47;;
25950;SDS011;13748;52.240;6.002;2023-04-25T09:33:52;7.97;;;1.47;;
25950;SDS011;13748;52.240;6.002;2023-04-25T09:36:29;5.77;;;1.33;;
25950;SDS011;13748;52.240;6.002;2023-04-25T09:38:57;3.23;;;1.03;;
25950;SDS011;13748;52.240;6.002;2023-04-25T09:41:27;6.43;;;1.60;;
25950;SDS011;13748;52.240;6.002;2023-04-25T09:43:56;6.30;;;1.50;;
25950;SDS011;13748;52.240;6.002;2023-04-25T09:46:32;14.70;;;2.80;;
25950;SDS011;13748;52.240;6.002;2023-04-25T09:49:06;4.77;;;1.43;;
25950;SDS011;13748;52.240;6.002;2023-04-25T09:51:34;5.37;;;1.67;;
25950;SDS011;13748;52.240;6.002;2023-04-25T09:54:01;4.93;;;1.20;;
25950;SDS011;13748;52.240;6.002;2023-04-25T09:56:28;4.10;;;1.37;;
25950;SDS011;13748;52.240;6.002;2023-04-25T09:59:01;7.10;;;1.60;;
25950;SDS011;13748;52.240;6.002;2023-04-25T10:01:29;7.90;;;2.60;;
25950;SDS011;13748;52.240;6.002;2023-04-25T10:03:57;5.47;;;1.67;;
25950;SDS011;13748;52.240;6.002;2023-04-25T10:06:25;9.37;;;1.90;;
25950;SDS011;13748;52.240;6.002;2023-04-25T10:08:53;7.10;;;2.30;;
25950;SDS011;13748;52.240;6.002;2023-04-25T10:11:22;9.63;;;2.00;;
25950;SDS011;13748;52.240;6.002;2023-04-25T10:13:52;2.70;;;1.53;;
25950;SDS011;13748;52.240;6.002;2023-04-25T10:16:19;6.37;;;1.60;;
25950;SDS011;13748;52.240;6.002;2023-04-25T10:18:47;10.73;;;2.17;;
25950;SDS011;13748;52.240;6.002;2023-04-25T10:21:14;7.67;;;1.83;;
25950;SDS011;13748;52.240;6.002;2023-04-25T10:23:42;7.07;;;2.07;;
25950;SDS011;13748;52.240;6.002;2023-04-25T10:26:09;6.23;;;2.00;;
25950;SDS011;13748;52.240;6.002;2023-04-25T10:28:54;5.47;;;1.70;;
25950;SDS011;13748;52.240;6.002;2023-04-25T10:31:26;5.57;;;1.60;;
25950;SDS011;13748;52.240;6.002;2023-04-25T10:33:53;4.27;;;1.47;;
25950;SDS011;13748;52.240;6.002;2023-04-25T10:36:21;4.07;;;1.50;;
25950;SDS011;13748;52.240;6.002;2023-04-25T10:38:50;8.40;;;1.70;;
25950;SDS011;13748;52.240;6.002;2023-04-25T10:41:17;3.17;;;1.40;;
25950;SDS011;13748;52.240;6.002;2023-04-25T10:43:48;10.63;;;1.90;;
25950;SDS011;13748;52.240;6.002;2023-04-25T10:46:25;7.63;;;2.10;;
25950;SDS011;13748;52.240;6.002;2023-04-25T10:48:54;4.13;;;1.50;;
25950;SDS011;13748;52.240;6.002;2023-04-25T10:51:22;4.33;;;1.43;;
25950;SDS011;13748;52.240;6.002;2023-04-25T10:56:29;6.30;;;1.60;;
25950;SDS011;13748;52.240;6.002;2023-04-25T10:59:05;7.57;;;2.50;;
25950;SDS011;13748;52.240;6.002;2023-04-25T11:01:38;5.30;;;1.80;;
25950;SDS011;13748;52.240;6.002;2023-04-25T11:04:29;4.70;;;1.67;;
25950;SDS011;13748;52.240;6.002;2023-04-25T11:09:42;7.80;;;1.63;;
25950;SDS011;13748;52.240;6.002;2023-04-25T11:12:11;6.60;;;1.60;;
25950;SDS011;13748;52.240;6.002;2023-04-25T11:14:39;3.37;;;1.30;;
25950;SDS011;13748;52.240;6.002;2023-04-25T11:17:11;3.97;;;1.50;;
25950;SDS011;13748;52.240;6.002;2023-04-25T11:19:38;6.97;;;1.60;;
25950;SDS011;13748;52.240;6.002;2023-04-25T11:22:05;6.50;;;2.60;;
25950;SDS011;13748;52.240;6.002;2023-04-25T11:24:33;8.20;;;1.60;;
25950;SDS011;13748;52.240;6.002;2023-04-25T11:27:01;4.87;;;1.53;;
25950;SDS011;13748;52.240;6.002;2023-04-25T11:29:30;8.33;;;1.73;;
25950;SDS011;13748;52.240;6.002;2023-04-25T11:31:59;4.93;;;1.70;;
25950;SDS011;13748;52.240;6.002;2023-04-25T11:34:31;2.57;;;1.37;;
25950;SDS011;13748;52.240;6.002;2023-04-25T11:37:02;5.33;;;1.40;;
25950;SDS011;13748;52.240;6.002;2023-04-25T11:39:29;6.77;;;1.90;;
25950;SDS011;13748;52.240;6.002;2023-04-25T11:41:56;3.87;;;1.30;;
25950;SDS011;13748;52.240;6.002;2023-04-25T11:44:23;5.50;;;1.40;;
25950;SDS011;13748;52.240;6.002;2023-04-25T11:46:51;6.97;;;1.70;;
25950;SDS011;13748;52.240;6.002;2023-04-25T11:49:18;6.03;;;1.67;;
25950;SDS011;13748;52.240;6.002;2023-04-25T11:51:46;5.57;;;1.67;;
25950;SDS011;13748;52.240;6.002;2023-04-25T11:54:14;7.80;;;2.00;;
25950;SDS011;13748;52.240;6.002;2023-04-25T11:56:42;6.17;;;1.50;;
25950;SDS011;13748;52.240;6.002;2023-04-25T11:59:10;6.63;;;1.70;;
25950;SDS011;13748;52.240;6.002;2023-04-25T12:01:38;5.50;;;1.87;;
25950;SDS011;13748;52.240;6.002;2023-04-25T12:04:16;6.83;;;1.93;;
25950;SDS011;13748;52.240;6.002;2023-04-25T12:06:46;5.17;;;1.60;;
25950;SDS011;13748;52.240;6.002;2023-04-25T12:09:16;4.87;;;1.40;;
25950;SDS011;13748;52.240;6.002;2023-04-25T12:11:54;3.33;;;1.40;;
25950;SDS011;13748;52.240;6.002;2023-04-25T12:14:22;5.93;;;1.70;;
25950;SDS011;13748;52.240;6.002;2023-04-25T12:16:50;4.73;;;1.33;;
25950;SDS011;13748;52.240;6.002;2023-04-25T12:19:18;3.40;;;1.60;;
25950;SDS011;13748;52.240;6.002;2023-04-25T12:21:46;3.73;;;1.23;;
25950;SDS011;13748;52.240;6.002;2023-04-25T12:24:24;4.63;;;1.47;;
25950;SDS011;13748;52.240;6.002;2023-04-25T12:26:58;5.67;;;1.10;;
25950;SDS011;13748;52.240;6.002;2023-04-25T12:29:27;3.03;;;1.30;;
25950;SDS011;13748;52.240;6.002;2023-04-25T12:32:07;3.70;;;1.20;;
25950;SDS011;13748;52.240;6.002;2023-04-25T12:34:34;3.13;;;1.27;;
25950;SDS011;13748;52.240;6.002;2023-04-25T12:37:02;3.13;;;1.20;;
25950;SDS011;13748;52.240;6.002;2023-04-25T12:39:29;3.03;;;1.07;;
25950;SDS011;13748;52.240;6.002;2023-04-25T12:42:02;4.00;;;1.20;;
25950;SDS011;13748;52.240;6.002;2023-04-25T12:44:34;3.20;;;1.20;;
25950;SDS011;13748;52.240;6.002;2023-04-25T12:47:01;3.87;;;1.37;;
25950;SDS011;13748;52.240;6.002;2023-04-25T12:49:29;2.80;;;1.27;;
25950;SDS011;13748;52.240;6.002;2023-04-25T12:51:56;7.10;;;1.40;;
25950;SDS011;13748;52.240;6.002;2023-04-25T12:54:23;4.53;;;1.40;;
25950;SDS011;13748;52.240;6.002;2023-04-25T12:56:51;3.63;;;1.40;;
25950;SDS011;13748;52.240;6.002;2023-04-25T12:59:18;8.20;;;1.90;;
25950;SDS011;13748;52.240;6.002;2023-04-25T13:01:46;6.93;;;1.70;;
25950;SDS011;13748;52.240;6.002;2023-04-25T13:04:14;4.17;;;1.60;;
25950;SDS011;13748;52.240;6.002;2023-04-25T13:06:42;7.57;;;2.10;;
25950;SDS011;13748;52.240;6.002;2023-04-25T13:09:09;4.97;;;1.60;;
25950;SDS011;13748;52.240;6.002;2023-04-25T13:11:38;6.13;;;1.50;;
25950;SDS011;13748;52.240;6.002;2023-04-25T13:14:06;7.80;;;1.87;;
25950;SDS011;13748;52.240;6.002;2023-04-25T13:16:34;5.80;;;1.53;;
25950;SDS011;13748;52.240;6.002;2023-04-25T13:19:01;3.73;;;1.57;;
25950;SDS011;13748;52.240;6.002;2023-04-25T13:21:29;4.90;;;1.60;;
25950;SDS011;13748;52.240;6.002;2023-04-25T13:23:58;4.40;;;1.57;;
25950;SDS011;13748;52.240;6.002;2023-04-25T13:26:25;5.10;;;2.53;;
25950;SDS011;13748;52.240;6.002;2023-04-25T13:28:52;3.47;;;1.20;;
25950;SDS011;13748;52.240;6.002;2023-04-25T13:31:19;4.23;;;1.50;;
25950;SDS011;13748;52.240;6.002;2023-04-25T13:33:46;5.13;;;1.20;;
25950;SDS011;13748;52.240;6.002;2023-04-25T13:36:13;5.13;;;1.47;;
25950;SDS011;13748;52.240;6.002;2023-04-25T13:38:40;6.60;;;1.63;;
25950;SDS011;13748;52.240;6.002;2023-04-25T13:41:10;6.80;;;1.87;;
25950;SDS011;13748;52.240;6.002;2023-04-25T13:43:48;7.13;;;1.70;;
25950;SDS011;13748;52.240;6.002;2023-04-25T13:46:15;6.00;;;1.50;;
25950;SDS011;13748;52.240;6.002;2023-04-25T13:49:04;5.23;;;1.80;;
25950;SDS011;13748;52.240;6.002;2023-04-25T13:51:38;7.30;;;1.80;;
25950;SDS011;13748;52.240;6.002;2023-04-25T13:54:09;8.40;;;1.60;;
25950;SDS011;13748;52.240;6.002;2023-04-25T13:56:36;7.40;;;1.80;;
25950;SDS011;13748;52.240;6.002;2023-04-25T13:59:04;3.50;;;1.50;;
25950;SDS011;13748;52.240;6.002;2023-04-25T14:01:30;4.70;;;1.87;;
25950;SDS011;13748;52.240;6.002;2023-04-25T14:04:02;6.50;;;1.67;;
25950;SDS011;13748;52.240;6.002;2023-04-25T14:06:32;7.23;;;1.50;;
25950;SDS011;13748;52.240;6.002;2023-04-25T14:09:00;3.70;;;1.60;;
25950;SDS011;13748;52.240;6.002;2023-04-25T14:11:27;9.40;;;1.83;;
25950;SDS011;13748;52.240;6.002;2023-04-25T14:13:55;2.60;;;1.50;;
25950;SDS011;13748;52.240;6.002;2023-04-25T14:16:21;4.20;;;1.70;;
25950;SDS011;13748;52.240;6.002;2023-04-25T14:18:49;6.67;;;1.90;;
25950;SDS011;13748;52.240;6.002;2023-04-25T14:21:16;8.47;;;1.83;;
25950;SDS011;13748;52.240;6.002;2023-04-25T14:23:43;5.17;;;1.47;;
25950;SDS011;13748;52.240;6.002;2023-04-25T14:26:09;5.63;;;2.17;;
25950;SDS011;13748;52.240;6.002;2023-04-25T14:28:38;5.47;;;1.53;;
25950;SDS011;13748;52.240;6.002;2023-04-25T14:31:05;5.27;;;1.80;;
25950;SDS011;13748;52.240;6.002;2023-04-25T14:33:32;9.53;;;1.90;;
25950;SDS011;13748;52.240;6.002;2023-04-25T14:35:59;3.97;;;1.70;;
25950;SDS011;13748;52.240;6.002;2023-04-25T14:38:26;8.60;;;1.53;;
25950;SDS011;13748;52.240;6.002;2023-04-25T14:40:53;4.10;;;1.67;;
25950;SDS011;13748;52.240;6.002;2023-04-25T14:43:21;2.97;;;2.00;;
25950;SDS011;13748;52.240;6.002;2023-04-25T14:45:47;6.33;;;2.00;;
25950;SDS011;13748;52.240;6.002;2023-04-25T14:48:14;3.43;;;1.50;;
25950;SDS011;13748;52.240;6.002;2023-04-25T14:50:45;5.73;;;1.83;;
25950;SDS011;13748;52.240;6.002;2023-04-25T14:53:12;8.03;;;1.63;;
25950;SDS011;13748;52.240;6.002;2023-04-25T14:55:40;9.00;;;1.98;;
25950;SDS011;13748;52.240;6.002;2023-04-25T14:58:07;5.87;;;1.77;;
25950;SDS011;13748;52.240;6.002;2023-04-25T15:00:34;7.53;;;1.60;;
25950;SDS011;13748;52.240;6.002;2023-04-25T15:03:01;6.07;;;1.60;;
25950;SDS011;13748;52.240;6.002;2023-04-25T15:05:29;5.43;;;1.30;;
25950;SDS011;13748;52.240;6.002;2023-04-25T15:07:56;4.77;;;1.77;;
25950;SDS011;13748;52.240;6.002;2023-04-25T15:10:23;6.07;;;1.80;;
25950;SDS011;13748;52.240;6.002;2023-04-25T15:12:49;5.83;;;1.70;;
25950;SDS011;13748;52.240;6.002;2023-04-25T15:15:16;6.13;;;1.70;;
25950;SDS011;13748;52.240;6.002;2023-04-25T15:17:51;3.63;;;1.60;;
25950;SDS011;13748;52.240;6.002;2023-04-25T15:20:23;7.30;;;1.93;;
25950;SDS011;13748;52.240;6.002;2023-04-25T15:22:51;4.10;;;2.27;;
25950;SDS011;13748;52.240;6.002;2023-04-25T15:25:18;5.73;;;1.67;;
25950;SDS011;13748;52.240;6.002;2023-04-25T15:27:44;3.57;;;1.37;;
25950;SDS011;13748;52.240;6.002;2023-04-25T15:30:14;4.67;;;1.60;;
25950;SDS011;13748;52.240;6.002;2023-04-25T15:32:43;4.37;;;1.40;;
25950;SDS011;13748;52.240;6.002;2023-04-25T15:35:11;3.57;;;1.30;;